Time;durP1;ratioP1;P1;durP2;ratioP2;P2;SDS_P1;SDS_P2;PMS_P1;PMS_P2;Temp;Humidity;BMP_temperature;BMP_pressure;BME280_temperature;BME280_humidity;BME280_pressure;Samples;Min_cycle;Max_cycle;Signal;HPM_P1;HPM_P2
2021/07/21 00:01:19;;;;;;;12.70;9.47;;;17.70;99.90;;;;;;5078257;28;20174;-85
2021/07/21 00:03:45;;;;;;;13.97;8.60;;;17.70;99.90;;;;;;5096459;28;20407;-85
2021/07/21 00:06:10;;;;;;;13.20;7.90;;;17.60;99.90;;;;;;5077958;28;20194;-84
2021/07/21 00:08:36;;;;;;;12.90;8.50;;;17.70;99.90;;;;;;5096355;28;20556;-86
2021/07/21 00:13:46;;;;;;;15.47;8.60;;;17.70;99.90;;;;;;5096298;28;20190;-86
2021/07/21 00:21:07;;;;;;;11.77;9.07;;;17.60;99.90;;;;;;5095676;28;20183;-85
2021/07/21 00:23:35;;;;;;;13.37;9.10;;;17.60;99.90;;;;;;5095920;28;20409;-85
2021/07/21 00:26:01;;;;;;;11.90;8.27;;;17.60;99.90;;;;;;5095835;28;20428;-84
2021/07/21 00:28:27;;;;;;;9.70;7.80;;;17.60;99.90;;;;;;5095840;28;20404;-83
2021/07/21 00:30:53;;;;;;;9.43;7.47;;;17.60;99.90;;;;;;5095825;28;20474;-84
2021/07/21 00:33:18;;;;;;;14.27;9.00;;;17.60;99.90;;;;;;5095765;28;20170;-84
2021/07/21 00:35:44;;;;;;;9.47;7.83;;;17.60;99.90;;;;;;5095337;28;20416;-83
2021/07/21 00:38:10;;;;;;;10.07;8.20;;;17.60;99.90;;;;;;5077379;28;20182;-85
2021/07/21 00:40:36;;;;;;;10.97;8.20;;;17.60;99.90;;;;;;5077708;28;20170;-85
2021/07/21 00:43:02;;;;;;;11.80;8.17;;;17.50;99.90;;;;;;5095530;28;20508;-85
2021/07/21 00:45:28;;;;;;;15.03;8.87;;;17.60;99.90;;;;;;5095552;28;20207;-84
2021/07/21 00:47:53;;;;;;;10.47;7.20;;;17.50;99.90;;;;;;5095372;28;20223;-84
2021/07/21 00:50:19;;;;;;;14.37;9.20;;;17.50;99.90;;;;;;5094854;28;20475;-84
2021/07/21 00:52:44;;;;;;;17.10;8.90;;;17.50;99.90;;;;;;5077138;28;20232;-84
2021/07/21 00:55:13;;;;;;;11.13;7.80;;;17.50;99.90;;;;;;5095408;28;20189;-86
2021/07/21 00:57:40;;;;;;;10.97;7.10;;;17.50;99.90;;;;;;5095257;28;20262;-84
2021/07/21 01:00:08;;;;;;;15.20;8.83;;;17.50;99.90;;;;;;5095185;28;20500;-85
2021/07/21 01:02:34;;;;;;;9.87;7.10;;;17.50;99.90;;;;;;5095160;28;20474;-87
2021/07/21 01:05:00;;;;;;;11.00;8.73;;;17.50;99.90;;;;;;5094733;28;20409;-84
2021/07/21 01:07:27;;;;;;;10.40;7.50;;;17.50;99.90;;;;;;5095099;28;20285;-87
2021/07/21 01:09:52;;;;;;;9.63;8.20;;;17.50;99.90;;;;;;5095149;28;20408;-86
2021/07/21 01:12:35;;;;;;;10.53;7.93;;;17.60;99.90;;;;;;5095161;28;20923;-87
2021/07/21 01:15:17;;;;;;;12.63;8.40;;;17.50;99.90;;;;;;5100740;28;20598;-88
2021/07/21 01:17:55;;;;;;;11.03;8.50;;;17.50;99.90;;;;;;5078123;28;20611;-84
2021/07/21 01:20:39;;;;;;;12.07;8.07;;;17.50;99.90;;;;;;5094637;28;20803;-86
2021/07/21 01:23:42;;;;;;;10.73;8.03;;;17.50;99.90;;;;;;5094768;28;20413;-84
2021/07/21 01:26:12;;;;;;;10.80;8.33;;;17.40;99.90;;;;;;5094732;28;20777;-86
2021/07/21 01:28:42;;;;;;;13.27;9.73;;;17.30;99.90;;;;;;5094817;28;20420;-86
2021/07/21 01:31:11;;;;;;;9.77;8.50;;;17.10;99.90;;;;;;5094501;28;20979;-86
2021/07/21 01:33:39;;;;;;;11.10;9.30;;;17.10;99.90;;;;;;5094583;28;20504;-87
2021/07/21 01:36:12;;;;;;;13.90;9.47;;;17.10;99.90;;;;;;5094107;28;20416;-85
2021/07/21 01:38:41;;;;;;;10.90;9.07;;;17.00;99.90;;;;;;5094370;28;20894;-84
2021/07/21 01:41:12;;;;;;;12.20;9.13;;;17.00;99.90;;;;;;5094371;28;20420;-85
2021/07/21 01:43:40;;;;;;;11.43;9.60;;;17.00;99.90;;;;;;5094300;28;20495;-85
2021/07/21 01:46:06;;;;;;;11.60;9.30;;;17.00;99.90;;;;;;5094326;28;20749;-85
2021/07/21 01:48:36;;;;;;;13.47;10.97;;;16.90;99.90;;;;;;5094192;28;20415;-86
2021/07/21 01:51:06;;;;;;;14.30;10.10;;;16.90;99.90;;;;;;5093870;28;20478;-85
2021/07/21 01:53:34;;;;;;;12.43;9.47;;;16.90;99.90;;;;;;5094197;28;20492;-85
2021/07/21 01:56:01;;;;;;;15.53;10.20;;;16.80;99.90;;;;;;5094339;28;20986;-87
2021/07/21 01:58:29;;;;;;;13.53;9.53;;;16.90;99.90;;;;;;5094128;28;20415;-85
2021/07/21 02:00:55;;;;;;;13.93;10.30;;;16.80;99.90;;;;;;5094148;28;20447;-85
2021/07/21 02:03:22;;;;;;;15.90;9.10;;;16.90;99.90;;;;;;5075190;28;20437;-85
2021/07/21 02:05:50;;;;;;;15.30;10.40;;;16.90;99.90;;;;;;5093590;28;20448;-87
2021/07/21 02:08:21;;;;;;;14.37;10.50;;;16.80;99.90;;;;;;5094061;28;20424;-87
2021/07/21 02:10:47;;;;;;;12.53;9.73;;;16.80;99.90;;;;;;5094044;28;20974;-88
2021/07/21 02:13:16;;;;;;;16.87;11.23;;;16.90;99.90;;;;;;5093942;28;20412;-86
2021/07/21 02:15:45;;;;;;;16.63;10.73;;;16.80;99.90;;;;;;5075528;28;20420;-87
2021/07/21 02:18:14;;;;;;;13.70;10.73;;;16.90;99.90;;;;;;5094119;28;20849;-89
2021/07/21 02:20:40;;;;;;;15.77;10.83;;;16.80;99.90;;;;;;5093726;28;20417;-86
2021/07/21 02:23:05;;;;;;;14.40;11.57;;;16.80;99.90;;;;;;5075617;28;20429;-88
2021/07/21 02:25:31;;;;;;;13.90;10.57;;;16.70;99.90;;;;;;5093853;28;20613;-88
2021/07/21 02:27:58;;;;;;;17.90;11.50;;;16.80;99.90;;;;;;5093698;28;20174;-85
2021/07/21 02:30:25;;;;;;;15.50;10.50;;;16.80;99.90;;;;;;5074924;28;20258;-85
2021/07/21 02:33:13;;;;;;;14.50;11.37;;;16.70;99.90;;;;;;5092765;28;20937;-86
2021/07/21 02:35:38;;;;;;;13.20;10.60;;;16.80;99.90;;;;;;5092163;28;20431;-86
2021/07/21 02:38:04;;;;;;;13.30;11.77;;;16.80;99.90;;;;;;5093371;28;20431;-86
2021/07/21 02:40:30;;;;;;;13.80;9.50;;;16.80;99.90;;;;;;5093045;28;20356;-85
2021/07/21 02:42:56;;;;;;;14.70;10.80;;;16.80;99.90;;;;;;5092867;28;20839;-86
2021/07/21 02:45:22;;;;;;;15.43;11.50;;;16.80;99.90;;;;;;5093494;28;20756;-85
2021/07/21 02:47:47;;;;;;;16.23;11.53;;;16.80;99.90;;;;;;5093208;28;20431;-85
2021/07/21 02:50:17;;;;;;;16.13;10.47;;;16.90;99.90;;;;;;5092561;28;20189;-85
2021/07/21 02:52:53;;;;;;;14.00;10.00;;;16.80;99.90;;;;;;5074163;28;20209;-86
2021/07/21 02:55:43;;;;;;;14.50;10.20;;;16.80;99.90;;;;;;5085546;28;20411;-87
2021/07/21 02:58:18;;;;;;;14.47;11.63;;;16.80;99.90;;;;;;5089688;28;20426;-86
2021/07/21 03:00:45;;;;;;;13.97;10.07;;;16.80;99.90;;;;;;5091426;28;21054;-86
2021/07/21 03:03:15;;;;;;;15.07;11.03;;;16.70;99.90;;;;;;5092032;28;20412;-86
2021/07/21 03:05:41;;;;;;;18.57;10.90;;;16.70;99.90;;;;;;5093260;28;20404;-86
2021/07/21 03:08:07;;;;;;;14.20;9.63;;;16.80;99.90;;;;;;5093312;28;20891;-86
2021/07/21 03:10:33;;;;;;;12.87;9.37;;;16.80;99.90;;;;;;5074991;28;20485;-87
2021/07/21 03:13:16;;;;;;;13.83;9.90;;;16.70;99.90;;;;;;5093985;28;20420;-85
2021/07/21 03:15:45;;;;;;;19.80;12.03;;;16.70;99.90;;;;;;5097166;28;20438;-86
2021/07/21 03:18:18;;;;;;;15.10;10.40;;;16.80;99.90;;;;;;5097255;28;20429;-85
2021/07/21 03:20:47;;;;;;;14.40;11.17;;;16.70;99.90;;;;;;5096804;28;20823;-84
2021/07/21 03:23:13;;;;;;;13.90;9.87;;;16.70;99.90;;;;;;5097022;28;20813;-85
2021/07/21 03:25:41;;;;;;;14.13;11.07;;;16.70;99.90;;;;;;5097054;28;20408;-86
2021/07/21 03:28:07;;;;;;;15.57;9.50;;;16.70;99.90;;;;;;5097017;28;20236;-85
2021/07/21 03:30:35;;;;;;;13.10;9.40;;;16.70;99.90;;;;;;5096932;28;20849;-85
2021/07/21 03:33:02;;;;;;;19.27;10.53;;;16.70;99.90;;;;;;5096893;28;20165;-84
2021/07/21 03:35:31;;;;;;;16.27;11.27;;;16.70;99.90;;;;;;5096470;28;20482;-86
2021/07/21 03:37:59;;;;;;;13.13;9.30;;;16.70;99.90;;;;;;5096767;28;20763;-85
2021/07/21 03:40:29;;;;;;;14.47;9.97;;;16.70;99.90;;;;;;5096871;28;20412;-87
2021/07/21 03:42:56;;;;;;;19.10;12.70;;;16.70;99.90;;;;;;5096704;28;20411;-86
2021/07/21 03:45:28;;;;;;;13.43;9.93;;;16.80;99.90;;;;;;5096686;28;20426;-86
2021/07/21 03:47:54;;;;;;;11.63;8.37;;;16.70;99.90;;;;;;5096847;28;20469;-88
2021/07/21 03:50:23;;;;;;;14.87;10.70;;;16.70;99.90;;;;;;5096641;28;20452;-87
2021/07/21 03:52:50;;;;;;;14.80;11.10;;;16.70;99.90;;;;;;5096525;28;20916;-88
2021/07/21 03:55:18;;;;;;;14.70;10.70;;;16.70;99.90;;;;;;5096471;28;20408;-86
2021/07/21 03:57:44;;;;;;;13.67;9.83;;;16.80;99.90;;;;;;5096496;28;20413;-86
2021/07/21 04:00:12;;;;;;;14.63;10.30;;;16.80;99.90;;;;;;5078304;28;20416;-86
2021/07/21 04:02:40;;;;;;;12.17;9.23;;;16.80;99.90;;;;;;5096235;28;20428;-85
2021/07/21 04:05:08;;;;;;;16.27;11.00;;;16.80;99.90;;;;;;5095985;28;20408;-86
2021/07/21 04:07:36;;;;;;;13.60;8.90;;;16.80;99.90;;;;;;5096248;28;20911;-87
2021/07/21 04:10:05;;;;;;;12.83;10.20;;;16.80;99.90;;;;;;5077830;28;20498;-86
2021/07/21 04:12:33;;;;;;;10.87;8.60;;;16.80;99.90;;;;;;5096082;28;20436;-86
2021/07/21 04:14:59;;;;;;;15.30;10.30;;;16.80;99.90;;;;;;5078239;28;20419;-86
2021/07/21 04:17:28;;;;;;;14.70;9.00;;;16.90;99.90;;;;;;5097013;28;20469;-86
2021/07/21 04:19:54;;;;;;;9.43;7.73;;;16.90;99.90;;;;;;5077487;28;20466;-86
2021/07/21 04:22:21;;;;;;;12.13;8.90;;;16.90;99.90;;;;;;5077659;28;20416;-86
2021/07/21 04:24:47;;;;;;;14.93;9.90;;;16.80;99.90;;;;;;5095276;28;20174;-85
2021/07/21 04:27:14;;;;;;;14.57;9.43;;;16.80;99.90;;;;;;5095922;28;20408;-86
2021/07/21 04:29:41;;;;;;;12.10;8.40;;;16.90;99.90;;;;;;5095906;28;20794;-86
2021/07/21 04:32:08;;;;;;;11.70;8.47;;;16.90;99.90;;;;;;5095964;28;20513;-85
2021/07/21 04:34:34;;;;;;;11.00;9.30;;;16.90;99.90;;;;;;5077264;28;20921;-87
2021/07/21 04:37:01;;;;;;;14.73;9.50;;;16.90;99.90;;;;;;5095448;28;20416;-85
2021/07/21 04:39:26;;;;;;;13.17;8.70;;;16.90;99.90;;;;;;5095446;28;20758;-87
2021/07/21 04:41:55;;;;;;;14.63;9.87;;;16.90;99.90;;;;;;5095683;28;20411;-86
2021/07/21 04:44:21;;;;;;;13.10;9.07;;;17.00;99.90;;;;;;5077395;28;20494;-85
2021/07/21 04:46:48;;;;;;;14.70;10.10;;;17.00;99.90;;;;;;5095489;28;20412;-86
2021/07/21 04:49:19;;;;;;;16.20;10.80;;;17.10;99.90;;;;;;5095272;28;20174;-87
2021/07/21 04:51:47;;;;;;;14.07;9.43;;;17.00;99.90;;;;;;5095295;28;20466;-86
2021/07/21 04:54:13;;;;;;;13.10;10.00;;;17.00;99.90;;;;;;5095399;28;20490;-85
2021/07/21 04:56:39;;;;;;;12.30;10.10;;;17.10;99.90;;;;;;5077051;28;20411;-87
2021/07/21 04:59:05;;;;;;;14.90;10.10;;;17.20;99.90;;;;;;5095213;28;20772;-86
2021/07/21 05:01:32;;;;;;;17.90;10.50;;;17.10;99.90;;;;;;5095075;28;20169;-85
2021/07/21 05:03:58;;;;;;;13.43;10.47;;;17.10;99.90;;;;;;5094641;28;20268;-87
2021/07/21 05:06:24;;;;;;;16.57;10.47;;;17.10;99.90;;;;;;5094211;28;20512;-87
2021/07/21 05:08:50;;;;;;;11.57;10.37;;;17.20;99.90;;;;;;5077151;28;20175;-87
2021/07/21 05:11:16;;;;;;;15.57;10.67;;;17.20;99.90;;;;;;5094990;28;20493;-86
2021/07/21 05:13:42;;;;;;;14.20;10.70;;;17.20;99.90;;;;;;5076617;28;20408;-86
2021/07/21 05:16:08;;;;;;;14.57;10.63;;;17.20;99.90;;;;;;5094651;28;20515;-84
2021/07/21 05:18:35;;;;;;;14.27;10.93;;;17.20;99.90;;;;;;5076416;28;20208;-86
2021/07/21 05:21:02;;;;;;;19.67;11.50;;;17.20;99.90;;;;;;5076668;28;20416;-86
2021/07/21 05:23:29;;;;;;;14.33;11.70;;;17.20;99.90;;;;;;5076493;28;20421;-86
2021/07/21 05:25:54;;;;;;;16.47;10.30;;;17.20;99.90;;;;;;5076599;28;20404;-86
2021/07/21 05:28:20;;;;;;;16.63;11.20;;;17.20;99.90;;;;;;5094570;28;20481;-84
2021/07/21 05:30:45;;;;;;;12.00;10.20;;;17.20;99.90;;;;;;5094580;28;20267;-89
2021/07/21 05:33:11;;;;;;;13.57;10.17;;;17.20;99.90;;;;;;5095123;28;20166;-86
2021/07/21 05:35:39;;;;;;;19.50;11.80;;;17.30;99.90;;;;;;5094555;28;20218;-85
2021/07/21 05:38:05;;;;;;;21.40;10.50;;;17.30;99.90;;;;;;5093812;28;20422;-87
2021/07/21 05:40:30;;;;;;;16.17;10.63;;;17.30;99.90;;;;;;5076599;28;21000;-86
2021/07/21 05:42:56;;;;;;;15.77;10.60;;;17.40;99.90;;;;;;5094614;28;20166;-85
2021/07/21 05:45:21;;;;;;;13.00;10.00;;;17.40;99.90;;;;;;5094487;28;20651;-87
2021/07/21 05:47:47;;;;;;;15.50;10.47;;;17.30;99.90;;;;;;5077457;28;20173;-86
2021/07/21 05:50:13;;;;;;;11.47;9.40;;;17.40;99.90;;;;;;5094797;28;20171;-87
2021/07/21 05:52:38;;;;;;;13.17;9.53;;;17.40;99.90;;;;;;5094271;28;20566;-86
2021/07/21 05:55:05;;;;;;;11.90;10.00;;;17.30;99.90;;;;;;5076518;28;20171;-86
2021/07/21 05:57:30;;;;;;;13.53;10.27;;;17.40;99.90;;;;;;5094112;28;20179;-86
2021/07/21 05:59:56;;;;;;;15.27;10.77;;;17.40;99.90;;;;;;5076034;28;20493;-85
2021/07/21 06:02:22;;;;;;;16.83;12.80;;;17.40;99.90;;;;;;5094103;28;20492;-86
2021/07/21 06:04:48;;;;;;;20.60;12.17;;;17.40;99.90;;;;;;5093559;28;20255;-86
2021/07/21 06:07:14;;;;;;;16.67;11.80;;;17.50;99.90;;;;;;5075902;28;20850;-86
2021/07/21 06:09:39;;;;;;;19.40;12.70;;;17.50;99.90;;;;;;5075781;28;20190;-86
2021/07/21 06:12:06;;;;;;;19.27;12.70;;;17.50;99.90;;;;;;5075661;28;20223;-86
2021/07/21 06:14:32;;;;;;;15.50;11.10;;;17.60;99.90;;;;;;5093973;28;20211;-84
2021/07/21 06:16:58;;;;;;;13.83;10.07;;;17.60;99.90;;;;;;5093610;28;20988;-86
2021/07/21 06:19:24;;;;;;;15.07;10.00;;;17.60;99.90;;;;;;5075313;28;20425;-86
2021/07/21 06:21:50;;;;;;;16.80;10.53;;;17.70;99.90;;;;;;5093656;28;20449;-85
2021/07/21 06:24:17;;;;;;;14.70;10.37;;;17.60;99.90;;;;;;5075517;28;20178;-85
2021/07/21 06:26:44;;;;;;;13.07;9.90;;;17.70;99.90;;;;;;5075957;28;20194;-85
2021/07/21 06:29:10;;;;;;;13.00;8.63;;;17.70;99.90;;;;;;5075327;28;20934;-84
2021/07/21 06:31:35;;;;;;;15.27;9.50;;;17.70;99.90;;;;;;5093538;28;20473;-83
2021/07/21 06:34:01;;;;;;;13.43;9.37;;;17.70;99.90;;;;;;5093066;28;20168;-86
2021/07/21 06:36:26;;;;;;;13.90;9.50;;;17.70;99.90;;;;;;5075260;28;20873;-84
2021/07/21 06:38:53;;;;;;;15.90;10.70;;;17.70;99.90;;;;;;5093673;28;20258;-85
2021/07/21 06:41:18;;;;;;;14.37;9.63;;;17.70;99.90;;;;;;5093549;28;20271;-87
2021/07/21 06:43:44;;;;;;;15.20;9.20;;;17.70;99.90;;;;;;5093763;28;21045;-84
2021/07/21 06:46:10;;;;;;;13.80;9.37;;;17.60;99.90;;;;;;5075269;28;20175;-86
2021/07/21 06:48:35;;;;;;;12.27;9.50;;;17.60;99.90;;;;;;5092751;28;20213;-86
2021/07/21 06:51:01;;;;;;;19.70;11.20;;;17.60;99.90;;;;;;5075082;28;20218;-86
2021/07/21 06:53:30;;;;;;;14.80;11.07;;;17.50;99.90;;;;;;5093272;28;20567;-87
2021/07/21 06:55:59;;;;;;;12.60;9.43;;;17.60;99.90;;;;;;5093145;28;20170;-87
2021/07/21 06:58:25;;;;;;;15.60;9.97;;;17.70;99.90;;;;;;5093107;28;20439;-87
2021/07/21 07:00:51;;;;;;;15.07;10.50;;;17.70;99.90;;;;;;5093156;28;20904;-85
2021/07/21 07:03:16;;;;;;;16.73;10.40;;;17.80;99.90;;;;;;5074781;28;20420;-86
2021/07/21 07:05:42;;;;;;;12.43;10.13;;;18.00;99.90;;;;;;5093349;28;20171;-87
2021/07/21 07:08:08;;;;;;;13.57;9.20;;;18.10;99.90;;;;;;5075104;28;20178;-88
2021/07/21 07:10:33;;;;;;;17.73;10.10;;;18.10;99.90;;;;;;5075512;28;20270;-90
2021/07/21 07:12:59;;;;;;;16.57;9.40;;;18.20;99.90;;;;;;5075747;28;20181;-89
2021/07/21 07:15:25;;;;;;;12.60;8.90;;;18.30;99.90;;;;;;5094310;28;20222;-90
2021/07/21 07:17:50;;;;;;;15.53;9.97;;;18.30;99.90;;;;;;5077879;28;20308;-85
2021/07/21 07:20:16;;;;;;;13.70;8.60;;;18.40;99.90;;;;;;5093351;28;20170;-86
2021/07/21 07:22:42;;;;;;;12.07;8.60;;;18.40;99.90;;;;;;5092062;28;20223;-85
2021/07/21 07:25:08;;;;;;;12.33;9.40;;;18.50;99.90;;;;;;5072455;28;20622;-85
2021/07/21 07:27:33;;;;;;;11.53;8.97;;;18.50;99.90;;;;;;5076199;28;20253;-87
2021/07/21 07:29:59;;;;;;;11.40;10.17;;;18.60;99.90;;;;;;5092330;28;20178;-86
2021/07/21 07:32:25;;;;;;;12.93;10.07;;;18.70;99.90;;;;;;5091780;28;20725;-85
2021/07/21 07:34:51;;;;;;;13.63;9.17;;;18.80;99.90;;;;;;5073762;28;20166;-87
2021/07/21 07:37:18;;;;;;;12.20;8.70;;;19.00;99.90;;;;;;5091943;28;20287;-87
2021/07/21 07:39:44;;;;;;;12.10;9.90;;;19.20;99.90;;;;;;5092335;28;20433;-86
2021/07/21 07:42:10;;;;;;;13.60;8.70;;;19.30;99.90;;;;;;5092146;28;20435;-88
2021/07/21 07:44:36;;;;;;;10.63;9.53;;;19.40;99.90;;;;;;5092471;28;20418;-86
2021/07/21 07:47:03;;;;;;;13.90;9.90;;;19.60;99.90;;;;;;5092694;28;20421;-88
2021/07/21 07:49:30;;;;;;;13.57;9.83;;;19.80;99.90;;;;;;5092599;28;20411;-85
2021/07/21 07:51:55;;;;;;;11.70;8.67;;;19.60;99.90;;;;;;5093069;28;21011;-86
2021/07/21 07:54:21;;;;;;;16.90;10.20;;;20.00;99.90;;;;;;5092946;28;20417;-87
2021/07/21 07:56:48;;;;;;;12.33;9.20;;;20.00;99.90;;;;;;5093071;28;20183;-88
2021/07/21 07:59:14;;;;;;;11.97;8.70;;;20.00;99.90;;;;;;5094297;28;20971;-87
2021/07/21 08:01:40;;;;;;;12.17;9.63;;;20.00;99.90;;;;;;5078116;28;20528;-88
2021/07/21 08:04:05;;;;;;;10.93;8.57;;;19.80;99.90;;;;;;5078324;28;20417;-87
2021/07/21 08:06:31;;;;;;;12.30;9.87;;;19.50;99.90;;;;;;5078499;28;20422;-88
2021/07/21 08:08:57;;;;;;;11.97;10.10;;;19.30;99.90;;;;;;5079380;28;20263;-85
2021/07/21 08:11:22;;;;;;;12.27;9.90;;;19.20;99.90;;;;;;5096662;28;20215;-84
2021/07/21 08:13:48;;;;;;;12.80;9.50;;;19.10;99.90;;;;;;5097627;28;20172;-90
2021/07/21 08:16:14;;;;;;;11.57;10.30;;;19.00;99.90;;;;;;5079044;28;20229;-90
2021/07/21 08:18:40;;;;;;;10.50;9.40;;;19.40;99.90;;;;;;5097661;28;20183;-86
2021/07/21 08:21:06;;;;;;;16.73;9.53;;;19.20;99.90;;;;;;5063615;28;20459;-88
2021/07/21 08:23:32;;;;;;;13.03;10.53;;;19.00;99.90;;;;;;5079979;28;20437;-88
2021/07/21 08:25:58;;;;;;;13.40;9.47;;;18.80;99.90;;;;;;5084648;28;20250;-84
2021/07/21 08:28:26;;;;;;;11.40;8.87;;;18.70;99.90;;;;;;5093740;28;20530;-87
2021/07/21 08:30:53;;;;;;;10.90;8.60;;;18.60;99.90;;;;;;5087942;28;20211;-87
2021/07/21 08:33:19;;;;;;;10.80;8.40;;;18.80;99.90;;;;;;5088636;28;20425;-87
2021/07/21 08:36:24;;;;;;;12.20;9.73;;;19.00;99.90;;;;;;5095371;28;20432;-86
2021/07/21 08:39:39;;;;;;;12.20;8.30;;;19.10;99.90;;;;;;5117720;28;20163;-87
2021/07/21 08:42:07;;;;;;;13.00;9.17;;;19.00;99.90;;;;;;5090217;28;20948;-88
2021/07/21 08:45:14;;;;;;;12.30;8.70;;;18.90;99.90;;;;;;5114794;28;20409;-85
2021/07/21 08:48:17;;;;;;;11.47;9.10;;;18.70;99.90;;;;;;5110528;28;20435;-87
2021/07/21 08:50:47;;;;;;;11.00;8.73;;;18.60;99.90;;;;;;5110345;28;20445;-85
2021/07/21 08:53:16;;;;;;;12.80;8.63;;;18.40;99.90;;;;;;5075501;28;20425;-86
2021/07/21 08:55:44;;;;;;;14.57;10.60;;;18.30;99.90;;;;;;5096724;28;20416;-86
2021/07/21 08:58:11;;;;;;;13.17;9.47;;;18.20;99.90;;;;;;5077299;28;20942;-85
2021/07/21 09:00:37;;;;;;;15.13;10.53;;;18.20;99.90;;;;;;5095193;28;20174;-85
2021/07/21 09:03:03;;;;;;;15.53;10.20;;;18.20;99.90;;;;;;5094947;28;20416;-86
2021/07/21 09:05:29;;;;;;;15.70;10.17;;;18.50;99.90;;;;;;5095306;28;20592;-85
2021/07/21 09:07:55;;;;;;;11.67;10.23;;;18.70;99.90;;;;;;5095320;28;20408;-89
2021/07/21 09:10:21;;;;;;;14.03;10.83;;;19.00;99.90;;;;;;5077067;28;20452;-85
2021/07/21 09:12:50;;;;;;;11.57;8.83;;;19.30;99.90;;;;;;5076856;28;20979;-86
2021/07/21 09:15:18;;;;;;;11.60;8.47;;;19.50;99.90;;;;;;5095279;28;20463;-87
2021/07/21 09:18:04;;;;;;;8.10;7.27;;;19.80;99.90;;;;;;5074487;28;20460;-86
2021/07/21 09:20:38;;;;;;;12.03;7.40;;;19.60;99.90;;;;;;5093753;28;20405;-86
2021/07/21 09:23:04;;;;;;;7.40;6.27;;;19.50;99.90;;;;;;5094943;28;20410;-86
2021/07/21 09:25:32;;;;;;;8.10;5.70;;;19.50;99.90;;;;;;5096535;28;20485;-86
2021/07/21 09:28:00;;;;;;;7.63;5.73;;;19.60;99.90;;;;;;5094246;28;20417;-87
2021/07/21 09:30:33;;;;;;;6.13;4.67;;;19.60;99.90;;;;;;5077189;28;20421;-91
2021/07/21 09:33:00;;;;;;;8.93;4.50;;;19.50;99.90;;;;;;5076585;28;20424;-87
2021/07/21 09:35:29;;;;;;;6.50;4.20;;;19.20;99.90;;;;;;5076017;28;20923;-88
2021/07/21 09:37:58;;;;;;;5.30;4.80;;;19.10;99.90;;;;;;5076689;28;20424;-91
2021/07/21 09:40:24;;;;;;;6.23;5.10;;;19.20;99.90;;;;;;5094652;28;20760;-87
2021/07/21 09:42:51;;;;;;;5.93;4.50;;;19.10;99.90;;;;;;5076525;28;20933;-89
2021/07/21 09:45:18;;;;;;;7.87;4.20;;;19.20;99.90;;;;;;5076262;28;20410;-87
2021/07/21 09:47:52;;;;;;;6.07;4.47;;;19.30;99.90;;;;;;5094735;28;20510;-86
2021/07/21 09:50:29;;;;;;;6.40;5.03;;;19.50;99.90;;;;;;5077045;28;20413;-86
2021/07/21 09:53:01;;;;;;;6.00;4.30;;;19.50;99.90;;;;;;5076573;28;20425;-91
2021/07/21 09:55:27;;;;;;;6.90;4.63;;;19.50;99.90;;;;;;5076838;28;20422;-88
2021/07/21 09:58:16;;;;;;;8.17;5.60;;;19.70;99.90;;;;;;5077383;28;20931;-87
2021/07/21 10:00:48;;;;;;;7.13;4.90;;;19.90;99.90;;;;;;5075493;28;20175;-90
2021/07/21 10:03:27;;;;;;;7.63;6.27;;;19.90;99.90;;;;;;5075746;28;20504;-90
2021/07/21 10:06:10;;;;;;;5.97;3.67;;;19.90;99.90;;;;;;5075228;28;20553;-87
2021/07/21 10:08:43;;;;;;;5.23;4.40;;;20.20;99.90;;;;;;5094556;28;20410;-88
2021/07/21 10:11:30;;;;;;;4.80;4.30;;;20.00;99.90;;;;;;5090736;28;20483;-86
2021/07/21 10:14:02;;;;;;;6.23;4.57;;;20.20;99.90;;;;;;5076419;28;20410;-86
2021/07/21 10:16:36;;;;;;;6.53;5.00;;;20.00;99.90;;;;;;5075921;28;20480;-87
2021/07/21 10:19:08;;;;;;;7.50;5.07;;;19.70;99.90;;;;;;5076725;28;20428;-91
2021/07/21 10:21:34;;;;;;;9.63;5.87;;;19.20;99.90;;;;;;5076326;28;20482;-86
2021/07/21 10:24:00;;;;;;;6.63;5.40;;;19.20;99.90;;;;;;5093165;28;20406;-87
2021/07/21 10:26:27;;;;;;;8.50;6.07;;;19.20;99.90;;;;;;5093883;28;20414;-87
2021/07/21 10:28:58;;;;;;;7.70;5.63;;;19.10;99.90;;;;;;5093601;28;20417;-87
2021/07/21 10:31:25;;;;;;;6.23;4.67;;;19.20;99.90;;;;;;5074765;28;20560;-87
2021/07/21 10:33:51;;;;;;;6.90;5.50;;;19.10;99.90;;;;;;5074531;28;20475;-88
2021/07/21 10:36:18;;;;;;;8.70;6.10;;;19.30;99.90;;;;;;5073868;28;20424;-89
2021/07/21 10:38:45;;;;;;;6.30;4.50;;;19.30;99.90;;;;;;5092847;28;20411;-87
2021/07/21 10:41:13;;;;;;;6.37;4.97;;;19.60;99.90;;;;;;5093198;28;20412;-86
2021/07/21 10:43:42;;;;;;;8.90;6.23;;;20.00;99.90;;;;;;5093077;28;20419;-85
2021/07/21 10:46:34;;;;;;;9.90;6.40;;;20.00;99.90;;;;;;5072065;28;20433;-87
2021/07/21 10:49:59;;;;;;;9.10;6.13;;;19.90;99.90;;;;;;5091867;28;20413;-87
2021/07/21 10:55:07;;;;;;;6.43;4.77;;;20.00;99.90;;;;;;5090817;28;20422;-86
2021/07/21 11:00:23;;;;;;;6.43;5.40;;;20.20;99.90;;;;;;5093526;28;20762;-88
2021/07/21 11:02:52;;;;;;;6.40;5.47;;;20.40;99.90;;;;;;5092904;28;20459;-87
2021/07/21 11:05:31;;;;;;;9.53;5.33;;;20.50;99.90;;;;;;5093058;28;20448;-86
2021/07/21 11:07:58;;;;;;;5.90;5.30;;;20.50;99.90;;;;;;5092865;28;20423;-88
2021/07/21 11:10:40;;;;;;;7.73;6.20;;;20.50;99.90;;;;;;5074421;28;20472;-87
2021/07/21 11:13:12;;;;;;;6.13;4.70;;;20.40;99.90;;;;;;5075127;28;20934;-86
2021/07/21 11:15:44;;;;;;;8.27;5.67;;;20.20;99.90;;;;;;5074816;28;20410;-86
2021/07/21 11:18:22;;;;;;;5.90;4.80;;;20.50;99.90;;;;;;5054592;28;20434;-88
2021/07/21 11:21:01;;;;;;;7.57;4.70;;;20.60;99.90;;;;;;5072898;28;20414;-88
2021/07/21 11:23:42;;;;;;;9.43;4.70;;;20.70;99.90;;;;;;5054773;28;20446;-87
2021/07/21 11:26:27;;;;;;;7.30;6.03;;;20.60;99.90;;;;;;5053645;28;21026;-88
2021/07/21 11:28:52;;;;;;;6.00;5.40;;;20.30;99.90;;;;;;5055282;28;20560;-88
2021/07/21 11:31:38;;;;;;;5.73;4.90;;;20.20;99.90;;;;;;5072434;28;20485;-89
2021/07/21 11:34:11;;;;;;;7.20;4.80;;;20.20;99.90;;;;;;5045209;28;20433;-87
2021/07/21 11:36:48;;;;;;;6.00;4.33;;;20.30;99.90;;;;;;5057895;28;20421;-91
2021/07/21 11:39:34;;;;;;;6.37;4.60;;;20.40;99.90;;;;;;5058993;28;20411;-88
2021/07/21 11:42:01;;;;;;;5.73;4.87;;;20.70;99.90;;;;;;5051894;28;20555;-87
2021/07/21 11:44:29;;;;;;;6.13;4.50;;;21.00;99.90;;;;;;5058423;28;21138;-87
2021/07/21 11:46:56;;;;;;;5.67;4.63;;;20.90;99.90;;;;;;5076517;28;20768;-88
2021/07/21 11:49:28;;;;;;;7.67;4.87;;;20.90;99.90;;;;;;5057089;28;20413;-87
2021/07/21 11:51:59;;;;;;;6.27;3.83;;;20.80;99.90;;;;;;5056303;28;20466;-88
2021/07/21 11:54:42;;;;;;;5.20;4.80;;;20.70;99.90;;;;;;5078751;28;20405;-88
2021/07/21 11:57:11;;;;;;;5.60;4.70;;;20.50;99.90;;;;;;5058464;28;20441;-89
2021/07/21 11:59:41;;;;;;;6.47;5.23;;;20.50;99.90;;;;;;5076109;28;20422;-89
2021/07/21 12:02:09;;;;;;;5.60;4.27;;;21.00;99.90;;;;;;5076753;28;20475;-89
2021/07/21 12:04:41;;;;;;;4.33;3.50;;;20.90;99.90;;;;;;5058478;28;20484;-89
2021/07/21 12:07:08;;;;;;;6.00;5.00;;;21.00;99.90;;;;;;5058783;28;20413;-88
2021/07/21 12:09:36;;;;;;;6.50;4.90;;;21.00;99.90;;;;;;5058379;28;20825;-89
2021/07/21 12:12:06;;;;;;;5.97;3.80;;;20.90;99.90;;;;;;5057412;28;20530;-88
2021/07/21 12:14:33;;;;;;;5.53;4.20;;;21.10;99.90;;;;;;5056856;28;20416;-89
2021/07/21 12:17:10;;;;;;;6.17;4.63;;;21.50;99.90;;;;;;5075040;28;20503;-89
2021/07/21 12:19:51;;;;;;;7.00;4.80;;;21.40;99.90;;;;;;5076438;28;20412;-88
2021/07/21 12:22:17;;;;;;;5.10;3.60;;;21.30;99.90;;;;;;5058367;28;20411;-89
2021/07/21 12:24:45;;;;;;;7.23;4.17;;;21.30;99.90;;;;;;5076186;28;20404;-87
2021/07/21 12:27:12;;;;;;;5.20;3.23;;;21.30;99.90;;;;;;5058161;28;20413;-88
2021/07/21 12:29:38;;;;;;;5.73;3.90;;;21.10;99.90;;;;;;5058091;28;20420;-87
2021/07/21 12:32:13;;;;;;;4.80;3.60;;;20.90;99.90;;;;;;5057525;28;20468;-89
2021/07/21 12:34:49;;;;;;;6.57;3.80;;;21.00;99.90;;;;;;5058031;28;20423;-88
2021/07/21 12:37:20;;;;;;;5.70;3.60;;;21.10;99.90;;;;;;5058168;28;20412;-88
2021/07/21 12:39:48;;;;;;;5.10;4.60;;;21.20;99.90;;;;;;5075924;28;20416;-89
2021/07/21 12:42:19;;;;;;;5.30;3.50;;;21.40;99.90;;;;;;5057892;28;20496;-89
2021/07/21 12:44:50;;;;;;;6.80;4.30;;;21.80;99.90;;;;;;5057867;28;20874;-88
2021/07/21 12:47:23;;;;;;;7.40;4.07;;;22.20;99.90;;;;;;5075155;28;20410;-88
2021/07/21 12:49:51;;;;;;;6.30;4.20;;;22.50;99.90;;;;;;5070804;28;20428;-88
2021/07/21 12:52:20;;;;;;;5.73;3.43;;;22.80;99.90;;;;;;5041160;28;20470;-89
2021/07/21 12:54:51;;;;;;;6.70;3.30;;;23.30;99.90;;;;;;5074735;28;20411;-90
2021/07/21 12:57:35;;;;;;;8.23;4.50;;;23.40;99.90;;;;;;5075348;28;20423;-89
2021/07/21 13:00:21;;;;;;;7.20;5.47;;;23.40;99.90;;;;;;5057769;28;20458;-90